Jurong, China
Current Conditions -  °F | °C
As of 11:00 PM on Wednesday 22 Oct 2014 (Local Time) from ZSNJ Reporting Station
Haze Haze  
Wind Chill: 55°   Ceiling: Unl
Heat Index: 55°   Visibility: 0.87mi
Dew Point: 55°   Wind: 2mph
Humidity: 100%   Direction: 300°WNW
Pressure: 30.18"   Gusts: NA
Location:  31.93°N, 119.17°E
Report Text: ZSNJ 221500Z 30001MPS 1400 R06/0600V1400 R07/P2000 BRNSC13/13 Q1022 NOSIG
Loading
Personal Weather Stations






























Interactive Weather Map
Tropical Storm Tracking
New forecast layout! Learn more

10-Day Weather Forecast

Advertisements
Track Severe Weather on mobile